Time;durP1;ratioP1;P1;durP2;ratioP2;P2;SDS_P1;SDS_P2;PMS_P1;PMS_P2;Temp;Humidity;BMP_temperature;BMP_pressure;BME280_temperature;BME280_humidity;BME280_pressure;Samples;Min_cycle;Max_cycle;Signal;HPM_P1;HPM_P2
2022/06/17 00:01:51;;;;;;;;;;;24.00;51.70;;;;;;5050445;28;19975;-64
2022/06/17 00:04:16;;;;;;;;;;;24.00;51.20;;;;;;5049667;28;19924;-65
2022/06/17 00:07:03;;;;;;;;;;;23.90;51.60;;;;;;5049313;28;19950;-65
2022/06/17 00:09:30;;;;;;;;;;;23.90;52.00;;;;;;5049315;28;19921;-66
2022/06/17 00:11:55;;;;;;;;;;;23.90;51.90;;;;;;5049771;28;19920;-65
2022/06/17 00:14:23;;;;;;;;;;;23.90;52.40;;;;;;5049713;28;20298;-65
2022/06/17 00:16:49;;;;;;;;;;;23.80;51.90;;;;;;5050482;28;19952;-65
2022/06/17 00:19:14;;;;;;;;;;;23.80;52.00;;;;;;5049658;28;20401;-63
2022/06/17 00:21:42;;;;;;;;;;;23.80;52.70;;;;;;5049237;28;20031;-64
2022/06/17 00:24:24;;;;;;;;;;;23.80;52.40;;;;;;5049999;28;19981;-65
2022/06/17 00:26:50;;;;;;;;;;;23.80;52.80;;;;;;5053174;28;19931;-66
2022/06/17 00:29:17;;;;;;;;;;;23.70;52.70;;;;;;5049659;28;19909;-65
2022/06/17 00:31:43;;;;;;;;;;;23.70;52.50;;;;;;5050495;28;20005;-65
2022/06/17 00:34:09;;;;;;;;;;;23.70;53.60;;;;;;5054258;28;20003;-63
2022/06/17 00:36:34;;;;;;;;;;;23.70;52.40;;;;;;5049305;28;20552;-64
2022/06/17 00:39:00;;;;;;;;;;;23.60;52.20;;;;;;5054192;28;19920;-63
2022/06/17 00:41:28;;;;;;;;;;;23.60;52.30;;;;;;5049534;28;20268;-62
2022/06/17 00:43:53;;;;;;;;;;;23.60;52.70;;;;;;5055570;28;20287;-64
2022/06/17 00:46:27;;;;;;;;;;;23.50;52.90;;;;;;5054939;28;19924;-62
2022/06/17 00:48:59;;;;;;;;;;;23.50;52.70;;;;;;5046609;28;19920;-64
2022/06/17 00:51:27;;;;;;;;;;;23.50;52.60;;;;;;5050064;28;20003;-64
2022/06/17 00:54:00;;;;;;;;;;;23.50;52.50;;;;;;5049285;28;19913;-64
2022/06/17 00:56:30;;;;;;;;;;;23.40;52.50;;;;;;5049351;28;19971;-64
2022/06/17 00:58:58;;;;;;;;;;;23.40;52.70;;;;;;5050802;28;20003;-64
2022/06/17 01:01:25;;;;;;;;;;;23.40;52.90;;;;;;5049087;28;19916;-64
2022/06/17 01:03:52;;;;;;;;;;;23.40;52.70;;;;;;5049337;28;19977;-64
2022/06/17 01:06:19;;;;;;;;;;;23.30;52.90;;;;;;5048857;28;20398;-64
2022/06/17 01:11:30;;;;;;;;;;;23.20;53.70;;;;;;5053333;28;19967;-64
2022/06/17 01:13:56;;;;;;;;;;;23.20;53.40;;;;;;5054120;28;19962;-62
2022/06/17 01:16:30;;;;;;;;;;;23.20;54.10;;;;;;5052326;28;19921;-64
2022/06/17 01:18:57;;;;;;;;;;;23.10;54.00;;;;;;5052439;28;19913;-65
2022/06/17 01:21:29;;;;;;;;;;;23.10;53.90;;;;;;5052420;28;19923;-64
2022/06/17 01:23:55;;;;;;;;;;;23.00;53.80;;;;;;5052339;28;19959;-64
2022/06/17 01:26:20;;;;;;;;;;;23.00;53.90;;;;;;5052758;28;20354;-65
2022/06/17 01:28:46;;;;;;;;;;;23.00;53.60;;;;;;5053327;28;20348;-64
2022/06/17 01:31:11;;;;;;;;;;;22.90;53.70;;;;;;5052087;28;19920;-64
2022/06/17 01:33:38;;;;;;;;;;;22.90;54.00;;;;;;5052640;28;19946;-63
2022/06/17 01:36:18;;;;;;;;;;;22.90;53.90;;;;;;5051661;28;19913;-63
2022/06/17 01:38:46;;;;;;;;;;;22.80;53.70;;;;;;5051900;28;19917;-65
2022/06/17 01:41:12;;;;;;;;;;;22.80;54.00;;;;;;5052887;28;20490;-64
2022/06/17 01:43:47;;;;;;;;;;;22.80;53.90;;;;;;5056514;28;19909;-63
2022/06/17 01:46:22;;;;;;;;;;;22.80;54.40;;;;;;5050393;28;19928;-63
2022/06/17 01:48:51;;;;;;;;;;;22.70;54.40;;;;;;5058687;28;20283;-64
2022/06/17 01:51:19;;;;;;;;;;;22.70;54.80;;;;;;5052711;28;20287;-64
2022/06/17 01:53:46;;;;;;;;;;;22.70;54.90;;;;;;5053577;28;19979;-64
2022/06/17 01:56:13;;;;;;;;;;;22.70;55.00;;;;;;5051985;28;19908;-64
2022/06/17 01:58:41;;;;;;;;;;;22.60;54.70;;;;;;5053224;28;19908;-64
2022/06/17 02:01:07;;;;;;;;;;;22.60;54.70;;;;;;5051483;28;19960;-64
2022/06/17 02:03:39;;;;;;;;;;;22.60;55.10;;;;;;5051644;28;19955;-64
2022/06/17 02:06:16;;;;;;;;;;;22.50;55.50;;;;;;5051468;28;19931;-62
2022/06/17 02:08:42;;;;;;;;;;;22.50;55.10;;;;;;5051978;28;19917;-64
2022/06/17 02:11:08;;;;;;;;;;;22.50;55.60;;;;;;5051960;28;19916;-63
2022/06/17 02:13:34;;;;;;;;;;;22.50;55.50;;;;;;5052369;28;19960;-65
2022/06/17 02:16:00;;;;;;;;;;;22.40;56.00;;;;;;5051494;28;20499;-64
2022/06/17 02:18:26;;;;;;;;;;;22.40;55.90;;;;;;5051435;28;19920;-64
2022/06/17 02:20:52;;;;;;;;;;;22.40;55.70;;;;;;5050145;28;19912;-64
2022/06/17 02:23:20;;;;;;;;;;;22.30;56.10;;;;;;5051297;28;19954;-63
2022/06/17 02:25:47;;;;;;;;;;;22.30;55.90;;;;;;5052288;28;20038;-63
2022/06/17 02:28:15;;;;;;;;;;;22.30;56.10;;;;;;5051679;28;19913;-64
2022/06/17 02:30:42;;;;;;;;;;;22.30;56.00;;;;;;5051081;28;19975;-64
2022/06/17 02:33:09;;;;;;;;;;;22.30;56.30;;;;;;5051369;28;19956;-64
2022/06/17 02:35:43;;;;;;;;;;;22.20;56.10;;;;;;5051242;28;20015;-63
2022/06/17 02:38:16;;;;;;;;;;;22.20;56.00;;;;;;5051525;28;19955;-64
2022/06/17 02:40:45;;;;;;;;;;;22.20;56.40;;;;;;5052357;28;19944;-64
2022/06/17 02:43:15;;;;;;;;;;;22.10;56.80;;;;;;5050741;28;19917;-63
2022/06/17 02:45:47;;;;;;;;;;;22.10;56.90;;;;;;5051254;28;19917;-65
2022/06/17 02:48:33;;;;;;;;;;;22.10;57.20;;;;;;5050993;28;19919;-65
2022/06/17 02:50:59;;;;;;;;;;;22.00;57.40;;;;;;5050420;28;20338;-63
2022/06/17 02:53:30;;;;;;;;;;;22.00;57.50;;;;;;5050877;28;20008;-64
2022/06/17 02:55:56;;;;;;;;;;;22.00;57.30;;;;;;5051758;28;20379;-65
2022/06/17 02:58:35;;;;;;;;;;;22.00;57.40;;;;;;5051296;28;19913;-64
2022/06/17 03:01:01;;;;;;;;;;;21.90;57.40;;;;;;5032559;28;19923;-64
2022/06/17 03:03:27;;;;;;;;;;;21.90;57.70;;;;;;5050271;28;19921;-64
2022/06/17 03:05:52;;;;;;;;;;;21.90;57.90;;;;;;5050287;28;20449;-64
2022/06/17 03:08:18;;;;;;;;;;;21.90;58.00;;;;;;5050964;28;19921;-64
2022/06/17 03:10:44;;;;;;;;;;;21.80;58.20;;;;;;5051364;28;19909;-65
2022/06/17 03:13:16;;;;;;;;;;;21.80;57.80;;;;;;5050260;28;20067;-63
2022/06/17 03:15:43;;;;;;;;;;;21.80;58.70;;;;;;5051206;28;19920;-64
2022/06/17 03:18:09;;;;;;;;;;;21.70;58.40;;;;;;5043863;28;20003;-63
2022/06/17 03:20:36;;;;;;;;;;;21.70;58.40;;;;;;5050197;28;19991;-64
2022/06/17 03:23:04;;;;;;;;;;;21.70;58.00;;;;;;5050945;28;20042;-66
2022/06/17 03:25:33;;;;;;;;;;;21.70;58.00;;;;;;5050704;28;19912;-65
2022/06/17 03:28:01;;;;;;;;;;;21.60;57.80;;;;;;5050205;28;19913;-65
2022/06/17 03:30:46;;;;;;;;;;;21.60;58.00;;;;;;5049916;28;19917;-64
2022/06/17 03:33:17;;;;;;;;;;;21.60;58.10;;;;;;4971301;28;20067;-63
2022/06/17 03:35:43;;;;;;;;;;;21.60;58.60;;;;;;4969190;28;19914;-65
2022/06/17 03:38:12;;;;;;;;;;;21.60;58.50;;;;;;4969114;28;19958;-65
2022/06/17 03:40:43;;;;;;;;;;;21.60;58.20;;;;;;4969775;28;20543;-64
2022/06/17 03:43:16;;;;;;;;;;;21.60;59.00;;;;;;4969114;28;20037;-64
2022/06/17 03:45:55;;;;;;;;;;;21.50;58.70;;;;;;4968498;28;19930;-64
2022/06/17 03:48:20;;;;;;;;;;;21.50;59.30;;;;;;4968622;28;19922;-63
2022/06/17 03:50:47;;;;;;;;;;;21.50;58.40;;;;;;4968743;28;20707;-65
2022/06/17 03:53:18;;;;;;;;;;;21.40;59.30;;;;;;4968324;28;19976;-65
2022/06/17 03:55:44;;;;;;;;;;;21.50;59.50;;;;;;4970632;28;19969;-66
2022/06/17 03:58:11;;;;;;;;;;;21.40;58.80;;;;;;4968385;28;19925;-65
2022/06/17 04:00:42;;;;;;;;;;;21.40;58.80;;;;;;4946725;28;19922;-64
2022/06/17 04:03:12;;;;;;;;;;;21.40;59.00;;;;;;4958267;28;19923;-64
2022/06/17 04:05:39;;;;;;;;;;;21.40;59.30;;;;;;4969081;28;20480;-64
2022/06/17 04:08:05;;;;;;;;;;;21.30;59.00;;;;;;4968960;28;20337;-64
2022/06/17 04:10:31;;;;;;;;;;;21.40;59.30;;;;;;5016513;28;19909;-64
2022/06/17 04:12:57;;;;;;;;;;;21.30;59.40;;;;;;5049468;28;19912;-63
2022/06/17 04:15:26;;;;;;;;;;;21.30;59.00;;;;;;5049392;28;19970;-63
2022/06/17 04:17:52;;;;;;;;;;;21.30;59.50;;;;;;5049261;28;19962;-62
2022/06/17 04:20:28;;;;;;;;;;;21.30;59.70;;;;;;5052861;28;19920;-63
2022/06/17 04:22:56;;;;;;;;;;;21.30;59.30;;;;;;5050912;28;19913;-64
2022/06/17 04:25:28;;;;;;;;;;;21.30;59.40;;;;;;5049552;28;19913;-65
2022/06/17 04:27:56;;;;;;;;;;;21.20;59.30;;;;;;5049636;28;19917;-64
2022/06/17 04:30:24;;;;;;;;;;;21.30;59.50;;;;;;5049296;28;20487;-63
2022/06/17 04:32:52;;;;;;;;;;;21.30;59.30;;;;;;5049201;28;19921;-65
2022/06/17 04:35:17;;;;;;;;;;;21.20;59.30;;;;;;5049829;28;19948;-65
2022/06/17 04:37:45;;;;;;;;;;;21.30;60.00;;;;;;5054915;28;19948;-65
2022/06/17 04:40:25;;;;;;;;;;;21.30;60.10;;;;;;5049594;28;19921;-65
2022/06/17 04:42:52;;;;;;;;;;;21.30;60.60;;;;;;5048649;28;19916;-65
2022/06/17 04:45:24;;;;;;;;;;;21.30;60.30;;;;;;5031285;28;19986;-64
2022/06/17 04:47:49;;;;;;;;;;;21.30;60.30;;;;;;5053221;28;20345;-65
2022/06/17 04:50:17;;;;;;;;;;;21.30;60.30;;;;;;5052617;28;19909;-63
2022/06/17 04:52:44;;;;;;;;;;;21.40;60.40;;;;;;5053996;28;19916;-64
2022/06/17 04:55:15;;;;;;;;;;;21.40;60.70;;;;;;5057531;28;19909;-64
2022/06/17 04:57:41;;;;;;;;;;;21.40;61.00;;;;;;5052620;28;19917;-64
2022/06/17 05:00:14;;;;;;;;;;;21.40;60.90;;;;;;5052041;28;19916;-62
2022/06/17 05:02:39;;;;;;;;;;;21.50;60.60;;;;;;5051954;28;19928;-62
2022/06/17 05:05:06;;;;;;;;;;;21.50;61.30;;;;;;5052624;28;19908;-63
2022/06/17 05:07:36;;;;;;;;;;;21.60;61.00;;;;;;5053432;28;20329;-64
2022/06/17 05:10:07;;;;;;;;;;;21.60;61.70;;;;;;5053722;28;20264;-62
2022/06/17 05:12:33;;;;;;;;;;;21.70;61.40;;;;;;5051912;28;19912;-62
2022/06/17 05:15:00;;;;;;;;;;;21.70;61.00;;;;;;5054679;28;19919;-61
2022/06/17 05:17:26;;;;;;;;;;;21.70;61.20;;;;;;5052549;28;20261;-64
2022/06/17 05:19:53;;;;;;;;;;;21.80;61.00;;;;;;5052944;28;20380;-64
2022/06/17 05:22:18;;;;;;;;;;;21.80;61.20;;;;;;5051814;28;19920;-61
2022/06/17 05:24:44;;;;;;;;;;;21.90;61.20;;;;;;5052147;28;19912;-62
2022/06/17 05:27:10;;;;;;;;;;;22.00;61.20;;;;;;5051949;28;19946;-62
2022/06/17 05:29:35;;;;;;;;;;;22.00;61.50;;;;;;5051371;28;20298;-62
2022/06/17 05:32:01;;;;;;;;;;;22.10;61.40;;;;;;5052572;28;19962;-63
2022/06/17 05:34:26;;;;;;;;;;;22.20;61.60;;;;;;5052548;28;19909;-63
2022/06/17 05:36:52;;;;;;;;;;;22.20;61.50;;;;;;5051541;28;19942;-63
2022/06/17 05:39:18;;;;;;;;;;;22.20;61.80;;;;;;5051947;28;19992;-64
2022/06/17 05:41:43;;;;;;;;;;;22.30;61.80;;;;;;5051734;28;19940;-63
2022/06/17 05:44:09;;;;;;;;;;;22.40;61.70;;;;;;5051568;28;20303;-63
2022/06/17 05:46:35;;;;;;;;;;;22.40;61.80;;;;;;5052181;28;20007;-63
2022/06/17 05:49:00;;;;;;;;;;;22.40;61.80;;;;;;5033461;28;20031;-62
2022/06/17 05:51:27;;;;;;;;;;;22.50;61.70;;;;;;5051532;28;20326;-63
2022/06/17 05:53:53;;;;;;;;;;;22.50;61.90;;;;;;5051703;28;19913;-63
2022/06/17 05:56:18;;;;;;;;;;;22.60;61.70;;;;;;5051005;28;19915;-64
2022/06/17 05:58:43;;;;;;;;;;;22.60;61.70;;;;;;5052168;28;19909;-62
2022/06/17 06:01:09;;;;;;;;;;;22.70;61.80;;;;;;5053846;28;19917;-63
2022/06/17 06:03:35;;;;;;;;;;;22.70;61.50;;;;;;5051504;28;19921;-63
2022/06/17 06:06:01;;;;;;;;;;;22.80;61.50;;;;;;5051010;28;19929;-63
2022/06/17 06:08:26;;;;;;;;;;;22.90;61.60;;;;;;5050992;28;19920;-63
2022/06/17 06:10:52;;;;;;;;;;;22.90;61.80;;;;;;5051855;28;20000;-63
2022/06/17 06:13:19;;;;;;;;;;;23.00;62.00;;;;;;5054582;28;19923;-62
2022/06/17 06:15:46;;;;;;;;;;;23.00;61.70;;;;;;5033560;28;19919;-63
2022/06/17 06:18:13;;;;;;;;;;;23.00;61.50;;;;;;5055583;28;19909;-61
2022/06/17 06:20:39;;;;;;;;;;;23.10;61.80;;;;;;5051377;28;19913;-62
2022/06/17 06:23:05;;;;;;;;;;;23.10;61.80;;;;;;5051549;28;19908;-63
2022/06/17 06:25:31;;;;;;;;;;;23.20;61.90;;;;;;5050871;28;19924;-63
2022/06/17 06:27:56;;;;;;;;;;;23.20;61.80;;;;;;5050396;28;19909;-62
2022/06/17 06:30:29;;;;;;;;;;;23.20;61.80;;;;;;5055503;28;19921;-62
2022/06/17 06:32:58;;;;;;;;;;;23.30;61.70;;;;;;5050980;28;19909;-62
2022/06/17 06:35:32;;;;;;;;;;;23.40;61.90;;;;;;5051136;28;19919;-61
2022/06/17 06:37:57;;;;;;;;;;;23.40;61.80;;;;;;5054273;28;19948;-58
2022/06/17 06:40:23;;;;;;;;;;;23.40;61.60;;;;;;5049942;28;20399;-60
2022/06/17 06:42:50;;;;;;;;;;;23.50;61.60;;;;;;5049381;28;19920;-60
2022/06/17 06:45:18;;;;;;;;;;;23.50;62.30;;;;;;5050253;28;19925;-61
2022/06/17 06:47:45;;;;;;;;;;;23.50;61.60;;;;;;5050314;28;19921;-61
2022/06/17 06:50:14;;;;;;;;;;;23.60;61.50;;;;;;5050984;28;20004;-62
2022/06/17 06:52:40;;;;;;;;;;;23.60;61.40;;;;;;5055512;28;19995;-62
2022/06/17 06:55:06;;;;;;;;;;;23.60;61.40;;;;;;5051240;28;20015;-63
2022/06/17 06:57:31;;;;;;;;;;;23.70;61.30;;;;;;5049507;28;19956;-60
2022/06/17 07:00:04;;;;;;;;;;;23.80;61.40;;;;;;5052762;28;19913;-61
2022/06/17 07:02:30;;;;;;;;;;;23.80;61.40;;;;;;5050871;28;19952;-61
2022/06/17 07:04:55;;;;;;;;;;;23.80;61.20;;;;;;5055712;28;19940;-61
2022/06/17 07:07:21;;;;;;;;;;;23.80;61.10;;;;;;5049883;28;19965;-62
2022/06/17 07:09:46;;;;;;;;;;;23.80;61.00;;;;;;5020503;28;19917;-62
2022/06/17 07:12:12;;;;;;;;;;;23.90;61.10;;;;;;5046738;28;19913;-63
2022/06/17 07:14:37;;;;;;;;;;;24.00;61.20;;;;;;5045495;28;19921;-62
2022/06/17 07:17:03;;;;;;;;;;;24.00;61.20;;;;;;5048746;28;20034;-61
2022/06/17 07:19:28;;;;;;;;;;;24.00;61.10;;;;;;5049957;28;20336;-62
2022/06/17 07:21:54;;;;;;;;;;;24.10;61.10;;;;;;5047395;28;20398;-62
2022/06/17 07:24:19;;;;;;;;;;;24.10;61.00;;;;;;5047292;28;20013;-63
2022/06/17 07:26:45;;;;;;;;;;;24.20;61.40;;;;;;5043841;28;20399;-61
2022/06/17 07:29:10;;;;;;;;;;;24.20;61.10;;;;;;5046158;28;19916;-61
2022/06/17 07:31:36;;;;;;;;;;;24.30;61.10;;;;;;5044483;28;19971;-63
2022/06/17 07:34:01;;;;;;;;;;;24.30;61.00;;;;;;5042589;28;20686;-62
2022/06/17 07:41:56;;;;;;;;;;;24.40;60.60;;;;;;5045960;28;20422;-63
2022/06/17 07:44:22;;;;;;;;;;;24.50;61.10;;;;;;5046050;28;20008;-63
2022/06/17 07:46:47;;;;;;;;;;;24.50;60.80;;;;;;5047905;28;20294;-61
2022/06/17 07:49:13;;;;;;;;;;;24.60;61.10;;;;;;5045347;28;19920;-62
2022/06/17 07:51:39;;;;;;;;;;;24.70;61.10;;;;;;5045836;28;19924;-61
2022/06/17 07:54:04;;;;;;;;;;;24.70;61.00;;;;;;5046173;28;19913;-59
2022/06/17 07:56:30;;;;;;;;;;;24.80;60.90;;;;;;5045932;28;19939;-61
2022/06/17 07:58:55;;;;;;;;;;;24.80;60.80;;;;;;5050218;28;19924;-62
2022/06/17 08:01:21;;;;;;;;;;;24.90;60.70;;;;;;5045943;28;20003;-62
2022/06/17 08:03:46;;;;;;;;;;;24.90;60.70;;;;;;5044319;28;20414;-61
2022/06/17 08:06:16;;;;;;;;;;;25.00;60.40;;;;;;5027868;28;20008;-62
2022/06/17 08:08:42;;;;;;;;;;;25.00;60.20;;;;;;5045116;28;19920;-63
2022/06/17 08:11:08;;;;;;;;;;;25.10;60.40;;;;;;5046640;28;19916;-62
2022/06/17 08:13:34;;;;;;;;;;;25.20;60.40;;;;;;5047356;28;20492;-61
2022/06/17 08:16:00;;;;;;;;;;;25.20;60.30;;;;;;5045905;28;19917;-61
2022/06/17 08:18:26;;;;;;;;;;;25.30;60.40;;;;;;5046292;28;20023;-60
2022/06/17 08:20:52;;;;;;;;;;;25.40;60.20;;;;;;5049720;28;19988;-62
2022/06/17 08:23:17;;;;;;;;;;;25.40;60.30;;;;;;5049510;28;19978;-61
2022/06/17 08:25:43;;;;;;;;;;;25.50;60.30;;;;;;5053665;28;19943;-62
2022/06/17 08:28:09;;;;;;;;;;;25.60;60.30;;;;;;5050937;28;19912;-62
2022/06/17 08:30:37;;;;;;;;;;;25.60;60.30;;;;;;5048925;28;19913;-62
2022/06/17 08:33:03;;;;;;;;;;;25.60;60.30;;;;;;5047785;28;20163;-60
2022/06/17 08:35:31;;;;;;;;;;;25.70;60.00;;;;;;5047514;28;19925;-59
2022/06/17 08:37:58;;;;;;;;;;;25.80;60.10;;;;;;5051197;28;20299;-62
2022/06/17 08:40:33;;;;;;;;;;;25.80;60.00;;;;;;5049315;28;19924;-61
2022/06/17 08:43:17;;;;;;;;;;;25.90;59.90;;;;;;5047623;28;20530;-59
2022/06/17 08:45:56;;;;;;;;;;;25.90;59.30;;;;;;5046205;28;19916;-60
2022/06/17 08:48:41;;;;;;;;;;;25.90;59.30;;;;;;5047469;28;19923;-61
2022/06/17 08:51:12;;;;;;;;;;;26.10;59.10;;;;;;5047800;28;19913;-60
2022/06/17 08:53:51;;;;;;;;;;;26.10;59.20;;;;;;5048203;28;19921;-60
2022/06/17 08:56:23;;;;;;;;;;;26.20;59.40;;;;;;5047951;28;20035;-61
2022/06/17 08:58:55;;;;;;;;;;;26.30;58.70;;;;;;5050641;28;19923;-61
2022/06/17 09:01:25;;;;;;;;;;;26.40;58.20;;;;;;5048006;28;19924;-60
2022/06/17 09:04:07;;;;;;;;;;;26.40;58.30;;;;;;5050289;28;19932;-60
2022/06/17 09:06:40;;;;;;;;;;;26.50;58.50;;;;;;5048582;28;19931;-61
2022/06/17 09:09:29;;;;;;;;;;;26.50;58.30;;;;;;5049400;28;19913;-61
2022/06/17 09:12:16;;;;;;;;;;;26.60;57.90;;;;;;5051284;28;19913;-61
2022/06/17 09:14:52;;;;;;;;;;;26.70;57.80;;;;;;5048755;28;20354;-60
2022/06/17 09:17:24;;;;;;;;;;;26.80;57.20;;;;;;5050793;28;19956;-62
2022/06/17 09:19:53;;;;;;;;;;;26.70;56.90;;;;;;5053423;28;19913;-61
2022/06/17 09:22:23;;;;;;;;;;;26.80;57.20;;;;;;5050769;28;19924;-61
2022/06/17 09:24:49;;;;;;;;;;;26.90;56.80;;;;;;5051330;28;19913;-61
2022/06/17 09:27:23;;;;;;;;;;;26.90;56.60;;;;;;5048808;28;19920;-61
2022/06/17 09:29:54;;;;;;;;;;;26.80;56.80;;;;;;5050484;28;20011;-61
2022/06/17 09:32:20;;;;;;;;;;;26.80;56.00;;;;;;5051738;28;19909;-62
2022/06/17 09:35:04;;;;;;;;;;;26.90;56.10;;;;;;5051607;28;19913;-61
2022/06/17 09:37:43;;;;;;;;;;;27.00;56.80;;;;;;5049728;28;20359;-61
2022/06/17 09:40:13;;;;;;;;;;;27.10;56.20;;;;;;5049515;28;20000;-61
2022/06/17 09:43:02;;;;;;;;;;;27.10;56.20;;;;;;5048133;28;20035;-60
2022/06/17 09:45:34;;;;;;;;;;;27.20;55.00;;;;;;4967398;28;19922;-62
2022/06/17 09:48:15;;;;;;;;;;;27.30;54.90;;;;;;4969424;28;19914;-61
2022/06/17 09:50:48;;;;;;;;;;;27.30;54.40;;;;;;4966984;28;19996;-62
2022/06/17 09:53:25;;;;;;;;;;;27.40;54.20;;;;;;4969815;28;19933;-61
2022/06/17 09:55:57;;;;;;;;;;;27.40;54.40;;;;;;4972265;28;19910;-62
2022/06/17 09:58:28;;;;;;;;;;;27.50;54.30;;;;;;4969122;28;20408;-61
2022/06/17 10:00:55;;;;;;;;;;;27.60;54.10;;;;;;4967052;28;20020;-61
2022/06/17 10:03:27;;;;;;;;;;;27.60;53.80;;;;;;4968608;28;19926;-61
2022/06/17 10:05:52;;;;;;;;;;;27.70;53.60;;;;;;4969101;28;19922;-62
2022/06/17 10:08:26;;;;;;;;;;;27.70;53.60;;;;;;4969222;28;19911;-62
2022/06/17 10:10:55;;;;;;;;;;;27.80;53.60;;;;;;4970637;28;19906;-61
2022/06/17 10:13:27;;;;;;;;;;;27.90;52.70;;;;;;4969196;28;20004;-61
2022/06/17 10:19:03;;;;;;;;;;;27.90;52.30;;;;;;4966950;28;19973;-62
2022/06/17 10:21:47;;;;;;;;;;;28.00;53.30;;;;;;4975590;28;19944;-61
2022/06/17 10:24:24;;;;;;;;;;;28.00;53.20;;;;;;5047841;28;19975;-60
2022/06/17 10:27:03;;;;;;;;;;;28.10;53.20;;;;;;5047435;28;19965;-61
2022/06/17 10:29:28;;;;;;;;;;;28.10;53.00;;;;;;5050583;28;19923;-61
2022/06/17 10:31:54;;;;;;;;;;;28.10;53.10;;;;;;5052247;28;19988;-60
2022/06/17 10:34:24;;;;;;;;;;;28.00;52.70;;;;;;5049380;28;19943;-61
2022/06/17 10:36:52;;;;;;;;;;;28.10;52.40;;;;;;5047289;28;19943;-62
2022/06/17 10:39:19;;;;;;;;;;;28.20;52.40;;;;;;5049398;28;19913;-61
2022/06/17 10:41:44;;;;;;;;;;;28.20;52.10;;;;;;5048328;28;19917;-62
2022/06/17 10:44:11;;;;;;;;;;;28.20;52.40;;;;;;5050265;28;19979;-62
2022/06/17 10:46:39;;;;;;;;;;;28.20;52.60;;;;;;5050137;28;19938;-60
2022/06/17 10:49:12;;;;;;;;;;;28.20;52.80;;;;;;5048299;28;20328;-61
2022/06/17 10:51:38;;;;;;;;;;;28.20;52.70;;;;;;5049538;28;19920;-61
2022/06/17 10:54:09;;;;;;;;;;;28.20;52.70;;;;;;5046908;28;19917;-60
2022/06/17 10:56:39;;;;;;;;;;;28.20;53.00;;;;;;5047844;28;20360;-62
2022/06/17 10:59:10;;;;;;;;;;;28.20;52.60;;;;;;5050576;28;19988;-61
2022/06/17 11:01:48;;;;;;;;;;;28.20;52.50;;;;;;5049768;28;19909;-61
2022/06/17 11:04:18;;;;;;;;;;;28.30;52.80;;;;;;5045574;28;19945;-60
2022/06/17 11:06:57;;;;;;;;;;;28.30;52.50;;;;;;5048653;28;19983;-60
2022/06/17 11:09:24;;;;;;;;;;;28.30;52.00;;;;;;5046407;28;20413;-62
2022/06/17 11:12:04;;;;;;;;;;;28.30;52.40;;;;;;5046447;28;19914;-61
2022/06/17 11:14:31;;;;;;;;;;;28.30;52.40;;;;;;5048652;28;20438;-61
2022/06/17 11:16:57;;;;;;;;;;;28.40;52.00;;;;;;5050747;28;19956;-61
2022/06/17 11:19:24;;;;;;;;;;;28.50;51.70;;;;;;5045572;28;19986;-62
2022/06/17 11:21:52;;;;;;;;;;;28.50;51.50;;;;;;5046420;28;19917;-62
2022/06/17 11:24:22;;;;;;;;;;;28.50;51.80;;;;;;5041910;28;19919;-60
2022/06/17 11:27:02;;;;;;;;;;;28.50;51.70;;;;;;5040390;28;19925;-61
2022/06/17 11:29:41;;;;;;;;;;;28.50;51.80;;;;;;5046988;28;19956;-61
2022/06/17 11:32:19;;;;;;;;;;;28.50;51.90;;;;;;5050541;28;19916;-61
2022/06/17 11:34:49;;;;;;;;;;;28.50;51.90;;;;;;5049666;28;19917;-61
2022/06/17 11:37:23;;;;;;;;;;;28.60;51.80;;;;;;5046479;28;19935;-61
2022/06/17 11:40:07;;;;;;;;;;;28.60;51.40;;;;;;5046343;28;20390;-61
2022/06/17 11:42:33;;;;;;;;;;;28.70;51.60;;;;;;5048306;28;19919;-61
2022/06/17 11:45:00;;;;;;;;;;;28.80;51.40;;;;;;5046825;28;19912;-61
2022/06/17 11:47:27;;;;;;;;;;;28.90;51.60;;;;;;5047303;28;19924;-62
2022/06/17 11:49:54;;;;;;;;;;;28.90;51.30;;;;;;5049780;28;19909;-61
2022/06/17 11:52:28;;;;;;;;;;;28.80;51.20;;;;;;5047928;28;19913;-61
2022/06/17 11:54:54;;;;;;;;;;;28.80;50.90;;;;;;5046070;28;19913;-60
2022/06/17 11:57:23;;;;;;;;;;;28.90;50.90;;;;;;5048328;28;19917;-61
2022/06/17 11:59:50;;;;;;;;;;;29.00;50.90;;;;;;5048118;28;19913;-62
2022/06/17 12:02:16;;;;;;;;;;;29.00;50.50;;;;;;5047821;28;19974;-61
2022/06/17 12:04:41;;;;;;;;;;;29.00;50.20;;;;;;5049960;28;20354;-61
2022/06/17 12:07:22;;;;;;;;;;;29.10;50.10;;;;;;5048361;28;19952;-60
2022/06/17 12:09:49;;;;;;;;;;;29.30;50.10;;;;;;5045820;28;19951;-61
2022/06/17 12:12:17;;;;;;;;;;;29.40;50.30;;;;;;5045677;28;19939;-60
2022/06/17 12:14:56;;;;;;;;;;;29.50;49.60;;;;;;5047188;28;20401;-61
2022/06/17 12:17:22;;;;;;;;;;;29.50;49.70;;;;;;5046769;28;19913;-61
2022/06/17 12:19:47;;;;;;;;;;;29.50;50.10;;;;;;5048420;28;20315;-61
2022/06/17 12:22:13;;;;;;;;;;;29.50;49.80;;;;;;5046004;28;19913;-60
2022/06/17 12:24:57;;;;;;;;;;;29.40;49.50;;;;;;5046748;28;20311;-59
2022/06/17 12:27:27;;;;;;;;;;;29.50;49.90;;;;;;5046806;28;20586;-61
2022/06/17 12:29:52;;;;;;;;;;;29.60;49.70;;;;;;5039740;28;20002;-61
2022/06/17 12:32:26;;;;;;;;;;;29.70;49.70;;;;;;5043652;28;20364;-61
2022/06/17 12:35:02;;;;;;;;;;;29.80;49.70;;;;;;5030029;28;20031;-60
2022/06/17 12:37:32;;;;;;;;;;;29.70;49.50;;;;;;5045389;28;20403;-60
2022/06/17 12:40:21;;;;;;;;;;;29.80;49.60;;;;;;5045882;28;20000;-60
2022/06/17 12:42:51;;;;;;;;;;;29.80;49.80;;;;;;5031961;28;20451;-61
2022/06/17 12:45:17;;;;;;;;;;;29.90;49.60;;;;;;5045308;28;19923;-61
2022/06/17 12:48:01;;;;;;;;;;;30.00;49.70;;;;;;5044605;28;19925;-60
2022/06/17 12:53:24;;;;;;;;;;;30.10;49.60;;;;;;5043472;28;20519;-61
2022/06/17 12:56:26;;;;;;;;;;;30.10;49.00;;;;;;5049525;28;19913;-60
2022/06/17 12:59:13;;;;;;;;;;;30.10;49.00;;;;;;4942218;28;19919;-61
2022/06/17 13:01:41;;;;;;;;;;;30.20;49.00;;;;;;4938456;28;19929;-59
2022/06/17 13:04:25;;;;;;;;;;;30.20;49.00;;;;;;4941617;28;19961;-61
2022/06/17 13:07:11;;;;;;;;;;;30.30;48.70;;;;;;4941016;28;20405;-59
2022/06/17 13:09:36;;;;;;;;;;;30.40;48.80;;;;;;4940616;28;19968;-62
2022/06/17 13:12:14;;;;;;;;;;;30.40;49.10;;;;;;4938109;29;19962;-61
2022/06/17 13:14:42;;;;;;;;;;;30.40;49.30;;;;;;4936621;28;19954;-61
2022/06/17 13:17:18;;;;;;;;;;;30.50;49.30;;;;;;4941003;28;20401;-61
2022/06/17 13:19:47;;;;;;;;;;;30.60;49.50;;;;;;4941654;28;19915;-61
2022/06/17 13:22:25;;;;;;;;;;;30.60;48.90;;;;;;4936578;28;19922;-59
2022/06/17 13:25:09;;;;;;;;;;;30.70;49.00;;;;;;4945660;28;20175;-59
2022/06/17 13:27:39;;;;;;;;;;;30.70;49.20;;;;;;4944596;29;19926;-60
2022/06/17 13:30:20;;;;;;;;;;;30.80;49.40;;;;;;4937851;28;19919;-62
2022/06/17 13:32:47;;;;;;;;;;;30.80;49.40;;;;;;4987734;28;19925;-61
2022/06/17 13:35:21;;;;;;;;;;;30.80;49.20;;;;;;5049159;28;19943;-59
2022/06/17 13:37:52;;;;;;;;;;;30.90;49.10;;;;;;5051013;28;19966;-62
2022/06/17 13:40:37;;;;;;;;;;;30.90;49.10;;;;;;5048968;28;20541;-61
2022/06/17 13:43:04;;;;;;;;;;;31.10;49.10;;;;;;5048468;28;19938;-60
2022/06/17 13:45:33;;;;;;;;;;;31.10;49.20;;;;;;5047267;28;19917;-61
2022/06/17 13:47:59;;;;;;;;;;;31.20;49.40;;;;;;5047173;28;19921;-61
2022/06/17 13:50:46;;;;;;;;;;;31.20;48.90;;;;;;5048134;28;19920;-61
2022/06/17 13:53:30;;;;;;;;;;;31.20;48.80;;;;;;5048760;28;19913;-60
2022/06/17 13:56:01;;;;;;;;;;;31.10;48.60;;;;;;5049580;28;19913;-62
2022/06/17 13:58:26;;;;;;;;;;;31.20;48.40;;;;;;5047927;28;19982;-60
2022/06/17 14:00:56;;;;;;;;;;;31.20;48.50;;;;;;5047756;28;20387;-61
2022/06/17 14:03:23;;;;;;;;;;;31.30;48.10;;;;;;5046263;28;20414;-62
2022/06/17 14:06:04;;;;;;;;;;;31.30;48.10;;;;;;5045471;28;19936;-60
2022/06/17 14:08:59;;;;;;;;;;;31.30;48.20;;;;;;5047099;28;20367;-61
2022/06/17 14:11:42;;;;;;;;;;;31.30;47.30;;;;;;5022356;28;19916;-61
2022/06/17 14:14:17;;;;;;;;;;;31.40;47.00;;;;;;5049279;28;19917;-63
2022/06/17 14:16:44;;;;;;;;;;;31.50;47.40;;;;;;5048798;28;19928;-59
2022/06/17 14:19:15;;;;;;;;;;;31.50;47.20;;;;;;5048665;28;19913;-61
2022/06/17 14:21:44;;;;;;;;;;;31.50;46.60;;;;;;5049992;28;19917;-61
2022/06/17 14:24:14;;;;;;;;;;;31.50;46.00;;;;;;5047625;28;19931;-61
2022/06/17 14:26:40;;;;;;;;;;;31.60;46.80;;;;;;5047292;28;19975;-62
2022/06/17 14:29:08;;;;;;;;;;;31.60;46.30;;;;;;5050827;28;19916;-60
2022/06/17 14:31:35;;;;;;;;;;;31.70;46.30;;;;;;5048614;28;19923;-62
2022/06/17 14:34:08;;;;;;;;;;;31.70;46.50;;;;;;5048501;28;19913;-62
2022/06/17 14:36:46;;;;;;;;;;;31.80;46.50;;;;;;5047767;28;20027;-61
2022/06/17 14:39:20;;;;;;;;;;;31.90;46.80;;;;;;5045148;28;19936;-60
2022/06/17 14:42:02;;;;;;;;;;;31.90;46.30;;;;;;5047704;28;19979;-61
2022/06/17 14:44:38;;;;;;;;;;;31.80;46.80;;;;;;5047990;28;19996;-62
2022/06/17 14:47:28;;;;;;;;;;;31.80;46.50;;;;;;5050002;28;19924;-62